Benchland, Montana
Current Conditions -  °F | °C
As of 6:54 AM on Monday 26 Jan 2015 (Local Time) from KLWT Reporting Station
Clear Clear  
Wind Chill:   Ceiling: Unl
Heat Index:   Visibility: 10mi
Dew Point: -2°   Wind: 3mph
Humidity: 55%   Direction: 310°NW
Pressure: 30.05"   Gusts: NA
Location:  47.1096°N, 109.884°W
Report Text: KLWT 261354Z AUTO 31003KT 10SM CLR 07/M02 A3005 RMK AO2 SLP177 T00671017
Loading
Personal Weather Stations






























Interactive Weather Map New forecast layout! Learn more

10-Day Weather Forecast

Advertisements
Track Severe Weather on mobile